Time;durP1;ratioP1;P1;durP2;ratioP2;P2;SDS_P1;SDS_P2;PMS_P1;PMS_P2;Temp;Humidity;BMP_temperature;BMP_pressure;BME280_temperature;BME280_humidity;BME280_pressure;Samples;Min_cycle;Max_cycle;Signal;HPM_P1;HPM_P2
2022/03/09 00:01:39;;;;;;;36.45;18.83;;;;;;;23.37;14.56;98760.25;5084058;28;20032;-79
2022/03/09 00:04:05;;;;;;;46.40;19.88;;;;;;;23.55;14.45;98760.88;5067421;28;20112;-78
2022/03/09 00:06:32;;;;;;;38.60;20.35;;;;;;;23.19;15.01;98748.34;5081971;28;20059;-78
2022/03/09 00:08:58;;;;;;;38.90;20.65;;;;;;;23.59;14.19;98756.06;5085507;28;20074;-78
2022/03/09 00:11:24;;;;;;;46.67;23.25;;;;;;;23.19;14.79;98762.38;5064927;28;20458;-78
2022/03/09 00:13:51;;;;;;;50.63;24.77;;;;;;;22.62;15.08;98753.53;5084942;28;20058;-79
2022/03/09 00:16:17;;;;;;;51.17;24.80;;;;;;;22.23;15.47;98748.09;5077820;28;20036;-78
2022/03/09 00:18:43;;;;;;;49.13;22.30;;;;;;;22.37;15.44;98759.22;5085720;28;20043;-78
2022/03/09 00:21:09;;;;;;;46.95;20.90;;;;;;;22.33;15.35;98752.03;5080365;28;20051;-78
2022/03/09 00:23:35;;;;;;;41.50;19.80;;;;;;;22.13;15.57;98740.53;5067741;28;20374;-78
2022/03/09 00:26:01;;;;;;;43.40;20.38;;;;;;;22.56;15.16;98736.34;5082567;28;20135;-79
2022/03/09 00:28:28;;;;;;;44.42;19.95;;;;;;;22.69;14.88;98751.47;5084673;28;20116;-79
2022/03/09 00:30:55;;;;;;;38.78;17.92;;;;;;;22.43;15.33;98745.59;5079494;28;20080;-79
2022/03/09 00:33:21;;;;;;;39.47;20.85;;;;;;;22.03;15.51;98739.34;5083260;28;20036;-78
2022/03/09 00:35:47;;;;;;;39.53;19.90;;;;;;;22.54;15.30;98751.94;5080442;28;20040;-78
2022/03/09 00:38:13;;;;;;;42.65;19.77;;;;;;;22.79;14.87;98732.22;5084303;28;20162;-78
2022/03/09 00:40:39;;;;;;;38.47;17.90;;;;;;;22.78;14.96;98739.81;5081947;28;20035;-78
2022/03/09 00:43:06;;;;;;;30.05;16.10;;;;;;;22.44;15.35;98736.81;5064088;28;20111;-78
2022/03/09 00:45:32;;;;;;;34.85;17.08;;;;;;;23.06;14.68;98739.63;5084688;28;20039;-78
2022/03/09 00:47:58;;;;;;;45.30;19.42;;;;;;;23.27;14.64;98730.25;5083366;28;20385;-79
2022/03/09 00:50:24;;;;;;;43.70;21.30;;;;;;;22.75;15.03;98739.88;5085113;28;20034;-78
2022/03/09 00:52:51;;;;;;;41.03;19.25;;;;;;;22.51;15.09;98739.56;5084601;28;20413;-78
2022/03/09 00:55:17;;;;;;;42.60;18.85;;;;;;;22.63;15.16;98739.13;5082608;28;20401;-78
2022/03/09 00:57:43;;;;;;;43.30;20.05;;;;;;;23.01;14.78;98736.50;5084381;28;20036;-78
2022/03/09 01:00:10;;;;;;;38.80;18.42;;;;;;;23.06;14.78;98728.44;5082753;28;20080;-78
2022/03/09 01:02:43;;;;;;;32.42;16.83;;;;;;;23.05;14.64;98737.25;5086526;28;20016;-78
2022/03/09 01:05:10;;;;;;;34.13;16.98;;;;;;;23.06;14.68;98731.22;5078271;28;20060;-79
2022/03/09 01:07:37;;;;;;;39.08;19.65;;;;;;;23.11;14.69;98716.78;5079512;28;20577;-79
2022/03/09 01:10:05;;;;;;;31.75;15.75;;;;;;;23.57;14.41;98722.00;5083126;28;20032;-78
2022/03/09 01:12:31;;;;;;;35.00;16.98;;;;;;;23.61;14.03;98720.00;5082527;28;20454;-78
2022/03/09 01:14:57;;;;;;;35.30;16.25;;;;;;;23.59;14.10;98722.41;5084481;28;20024;-78
2022/03/09 01:17:24;;;;;;;36.67;18.08;;;;;;;23.58;14.20;98715.22;5084660;28;20050;-78
2022/03/09 01:19:50;;;;;;;38.58;18.90;;;;;;;23.38;14.46;98714.97;5082620;28;20039;-78
2022/03/09 01:22:16;;;;;;;40.70;18.98;;;;;;;23.22;14.56;98717.50;5084892;28;20040;-78
2022/03/09 01:24:42;;;;;;;40.47;18.75;;;;;;;23.25;14.57;98721.47;5082346;28;20024;-78
2022/03/09 01:27:09;;;;;;;46.45;21.00;;;;;;;23.23;14.65;98716.31;5081774;28;20501;-78
2022/03/09 01:29:35;;;;;;;38.28;19.17;;;;;;;23.08;14.68;98716.84;5083433;28;20029;-78
2022/03/09 01:32:01;;;;;;;39.67;20.48;;;;;;;22.55;15.06;98712.34;5077788;28;20032;-78
2022/03/09 01:34:27;;;;;;;43.35;21.42;;;;;;;22.46;15.34;98709.22;5064852;28;20394;-78
2022/03/09 01:36:53;;;;;;;53.08;25.52;;;;;;;21.47;16.04;98711.50;5082416;28;20111;-78
2022/03/09 01:39:20;;;;;;;48.22;22.90;;;;;;;21.84;15.92;98705.47;5086233;28;20036;-78
2022/03/09 01:41:46;;;;;;;44.38;19.73;;;;;;;22.30;15.58;98705.28;5086646;28;20036;-78
2022/03/09 01:44:19;;;;;;;43.47;21.00;;;;;;;22.53;15.21;98703.56;5087348;28;20238;-78
2022/03/09 01:46:50;;;;;;;42.83;20.45;;;;;;;22.74;14.99;98705.47;5084577;28;20432;-78
2022/03/09 01:49:18;;;;;;;53.25;24.40;;;;;;;22.95;14.78;98698.91;5083808;28;20123;-78
2022/03/09 01:51:46;;;;;;;49.20;21.05;;;;;;;23.27;14.49;98699.44;5089344;28;20051;-78
2022/03/09 01:54:13;;;;;;;42.95;19.58;;;;;;;23.81;14.08;98700.53;5087428;28;21587;-78
2022/03/09 01:56:40;;;;;;;39.25;19.58;;;;;;;23.92;14.00;98707.63;5087042;28;20470;-78
2022/03/09 01:59:09;;;;;;;41.28;21.35;;;;;;;24.01;14.03;98702.31;5091123;28;20038;-78
2022/03/09 02:01:36;;;;;;;48.72;21.98;;;;;;;24.02;13.80;98691.88;5089388;28;20129;-79
2022/03/09 02:04:04;;;;;;;43.97;20.83;;;;;;;23.97;14.02;98693.16;5086186;28;20036;-78
2022/03/09 02:06:32;;;;;;;45.80;21.35;;;;;;;23.66;14.18;98694.31;5086622;28;20127;-78
2022/03/09 02:11:45;;;;;;;44.58;20.63;;;;;;;22.80;14.87;98686.25;5088107;28;20508;-79
2022/03/09 02:14:32;;;;;;;53.75;23.75;;;;;;;22.12;15.60;98682.22;5088964;28;20028;-79
2022/03/09 02:17:02;;;;;;;43.88;20.23;;;;;;;22.21;15.50;98677.78;5083912;28;20032;-78
2022/03/09 02:19:29;;;;;;;43.00;19.67;;;;;;;22.28;15.50;98677.72;5085790;28;20086;-78
2022/03/09 02:22:06;;;;;;;43.25;20.55;;;;;;;22.58;15.19;98680.75;5087756;28;20028;-78
2022/03/09 02:24:33;;;;;;;44.80;21.75;;;;;;;21.76;15.95;98679.50;5071500;28;20036;-79
2022/03/09 02:26:59;;;;;;;41.58;21.45;;;;;;;22.33;15.50;98682.09;5081053;28;20043;-79
2022/03/09 02:29:25;;;;;;;47.75;21.05;;;;;;;22.23;15.54;98686.53;5088172;28;20396;-79
2022/03/09 02:31:51;;;;;;;51.97;25.70;;;;;;;22.07;15.74;98688.22;5085836;28;20085;-78
2022/03/09 02:34:17;;;;;;;56.25;25.92;;;;;;;21.50;16.22;98682.75;5098897;28;20028;-78
2022/03/09 02:36:43;;;;;;;57.30;24.25;;;;;;;21.36;16.21;98674.41;5085666;28;20067;-78
2022/03/09 02:39:10;;;;;;;57.42;27.52;;;;;;;21.60;16.40;98681.16;5086977;28;20081;-78
2022/03/09 02:41:36;;;;;;;47.55;20.48;;;;;;;21.89;16.12;98672.28;5090328;28;20081;-78
2022/03/09 02:44:03;;;;;;;48.88;20.95;;;;;;;22.52;15.55;98678.81;5088311;28;20035;-78
2022/03/09 02:46:29;;;;;;;43.33;19.60;;;;;;;23.07;14.89;98676.81;5081161;28;20114;-78
2022/03/09 02:48:55;;;;;;;38.13;20.55;;;;;;;23.63;14.63;98666.31;5087023;28;20155;-78
2022/03/09 02:51:22;;;;;;;43.78;21.58;;;;;;;23.63;14.38;98672.72;5086736;28;20042;-78
2022/03/09 02:53:48;;;;;;;44.20;20.48;;;;;;;23.09;14.96;98673.59;5087895;28;20038;-78
2022/03/09 02:56:15;;;;;;;39.72;19.58;;;;;;;23.35;14.66;98673.00;5083419;28;20041;-78
2022/03/09 02:58:43;;;;;;;44.92;20.70;;;;;;;23.46;14.59;98672.88;5085799;28;20046;-78
2022/03/09 03:01:12;;;;;;;42.85;19.80;;;;;;;23.34;14.52;98671.34;5066060;28;20126;-78
2022/03/09 03:03:43;;;;;;;45.13;19.85;;;;;;;23.30;14.57;98671.41;5082298;28;20020;-78
2022/03/09 03:06:10;;;;;;;38.05;19.17;;;;;;;23.25;14.65;98671.84;5083271;28;20413;-78
2022/03/09 03:08:38;;;;;;;39.00;18.85;;;;;;;23.32;14.61;98674.59;5086713;28;20045;-78
2022/03/09 03:11:05;;;;;;;41.92;18.85;;;;;;;23.34;14.69;98682.56;5082877;28;20037;-78
2022/03/09 03:13:31;;;;;;;39.05;19.02;;;;;;;23.26;14.61;98681.84;5084194;28;20153;-78
2022/03/09 03:15:57;;;;;;;45.83;21.08;;;;;;;23.41;14.67;98674.13;5085667;28;20481;-78
2022/03/09 03:18:23;;;;;;;43.63;20.42;;;;;;;23.84;14.14;98672.47;5081576;28;20028;-78
2022/03/09 03:20:54;;;;;;;37.60;18.63;;;;;;;24.17;13.85;98678.50;5081138;28;20047;-78
2022/03/09 03:23:22;;;;;;;38.75;19.13;;;;;;;23.91;14.21;98685.63;5085066;28;20032;-78
2022/03/09 03:25:49;;;;;;;33.70;17.17;;;;;;;23.79;14.10;98677.72;5084064;28;20688;-78
2022/03/09 03:28:15;;;;;;;38.13;18.15;;;;;;;24.07;14.19;98677.44;5083773;28;20030;-78
2022/03/09 03:30:41;;;;;;;35.38;18.00;;;;;;;24.36;13.98;98691.91;5083614;28;20044;-78
2022/03/09 03:33:07;;;;;;;38.25;19.10;;;;;;;24.59;13.91;98677.94;5088372;28;20495;-78
2022/03/09 03:35:34;;;;;;;38.45;18.10;;;;;;;24.70;13.61;98676.56;5083383;28;20057;-78
2022/03/09 03:38:00;;;;;;;38.85;20.05;;;;;;;24.56;13.85;98678.78;5065677;28;20035;-78
2022/03/09 03:40:26;;;;;;;40.50;19.02;;;;;;;24.01;14.12;98682.66;5082729;28;20506;-78
2022/03/09 03:42:52;;;;;;;45.38;20.10;;;;;;;23.81;14.31;98687.31;5084819;28;20032;-78
2022/03/09 03:45:18;;;;;;;42.75;20.85;;;;;;;23.43;14.70;98688.53;5082042;28;20043;-78
2022/03/09 03:47:44;;;;;;;44.60;20.75;;;;;;;22.79;15.41;98682.63;5087200;28;20036;-78
2022/03/09 03:50:10;;;;;;;42.25;22.52;;;;;;;21.81;16.26;98686.69;5085554;28;20036;-78
2022/03/09 03:52:36;;;;;;;48.40;21.88;;;;;;;21.82;16.52;98677.09;5084597;28;20401;-78
2022/03/09 03:55:03;;;;;;;40.78;19.98;;;;;;;21.85;16.53;98679.09;5082552;28;20069;-78
2022/03/09 03:57:29;;;;;;;46.30;22.92;;;;;;;21.48;16.73;98687.16;5083197;28;20105;-78
2022/03/09 03:59:56;;;;;;;41.38;20.25;;;;;;;21.58;16.77;98678.78;5082444;28;20044;-78
2022/03/09 04:02:22;;;;;;;43.28;21.50;;;;;;;21.49;16.91;98686.78;5085801;28;20160;-78
2022/03/09 04:04:50;;;;;;;52.92;22.58;;;;;;;21.96;16.60;98691.06;5086704;28;20039;-78
2022/03/09 04:07:16;;;;;;;49.30;22.23;;;;;;;22.17;16.40;98698.56;5064454;28;20025;-78
2022/03/09 04:09:42;;;;;;;49.47;21.48;;;;;;;22.01;16.42;98694.22;5069757;28;20032;-78
2022/03/09 04:12:09;;;;;;;45.58;21.52;;;;;;;22.11;16.34;98700.97;5086006;28;20036;-78
2022/03/09 04:14:36;;;;;;;42.55;21.08;;;;;;;22.39;16.10;98694.44;5082563;28;20255;-78
2022/03/09 04:17:02;;;;;;;42.95;20.23;;;;;;;22.58;15.84;98694.75;5086729;28;20032;-78
2022/03/09 04:19:28;;;;;;;41.90;19.80;;;;;;;23.10;15.49;98684.41;5080782;28;20036;-78
2022/03/09 04:21:55;;;;;;;42.72;20.90;;;;;;;23.21;15.26;98687.09;5086161;28;20035;-78
2022/03/09 04:24:21;;;;;;;38.08;17.85;;;;;;;23.08;15.28;98695.19;5085449;28;20032;-78
2022/03/09 04:26:47;;;;;;;41.38;18.95;;;;;;;23.20;15.25;98693.91;5080629;28;20052;-78
2022/03/09 04:29:13;;;;;;;40.42;19.38;;;;;;;23.50;15.11;98690.47;5086320;28;20078;-78
2022/03/09 04:31:39;;;;;;;40.22;20.05;;;;;;;23.24;15.38;98687.06;5083197;28;20107;-78
2022/03/09 04:34:06;;;;;;;39.25;18.83;;;;;;;23.61;14.81;98691.16;5085148;28;20032;-78
2022/03/09 04:36:32;;;;;;;46.83;22.70;;;;;;;22.60;16.03;98695.16;5088677;28;20093;-78
2022/03/09 04:38:59;;;;;;;43.03;20.17;;;;;;;22.59;16.09;98689.94;5081934;28;20172;-78
2022/03/09 04:41:25;;;;;;;41.58;20.95;;;;;;;21.99;16.59;98699.44;5086520;28;20501;-78
2022/03/09 04:43:51;;;;;;;53.53;22.60;;;;;;;21.51;17.16;98701.13;5085361;28;20477;-78
2022/03/09 04:46:17;;;;;;;45.63;21.63;;;;;;;21.48;17.11;98698.31;5078012;28;20389;-78
2022/03/09 04:48:44;;;;;;;42.88;20.50;;;;;;;21.65;16.83;98705.88;5085295;28;20467;-78
2022/03/09 04:51:11;;;;;;;48.75;25.33;;;;;;;21.68;16.82;98708.66;5082220;28;20048;-78
2022/03/09 04:53:37;;;;;;;47.25;21.80;;;;;;;22.01;16.46;98702.59;5079129;28;20028;-78
2022/03/09 04:56:03;;;;;;;40.00;20.75;;;;;;;22.59;16.09;98698.34;5083548;28;20881;-78
2022/03/09 04:58:29;;;;;;;45.60;20.70;;;;;;;22.88;15.68;98696.97;5081091;28;20358;-78
2022/03/09 05:00:56;;;;;;;39.00;20.23;;;;;;;23.03;15.53;98690.06;5081889;28;20039;-78
2022/03/09 05:03:22;;;;;;;43.85;19.25;;;;;;;23.29;15.50;98692.22;5080368;28;20035;-78
2022/03/09 05:05:48;;;;;;;40.10;20.15;;;;;;;23.42;15.14;98692.53;5079419;28;20039;-78
2022/03/09 05:08:14;;;;;;;36.97;18.88;;;;;;;23.43;15.27;98691.34;5063765;28;20148;-79
2022/03/09 05:10:40;;;;;;;47.25;21.77;;;;;;;23.07;15.63;98699.22;5080145;28;20409;-77
2022/03/09 05:13:06;;;;;;;53.83;24.02;;;;;;;22.73;15.85;98701.09;5083337;28;20043;-78
2022/03/09 05:15:33;;;;;;;50.30;22.70;;;;;;;22.93;15.63;98704.13;5082957;28;20039;-78
2022/03/09 05:17:59;;;;;;;44.90;20.20;;;;;;;22.98;15.54;98698.09;5079885;28;20134;-78
2022/03/09 05:20:25;;;;;;;36.45;17.88;;;;;;;22.80;15.97;98709.41;5064724;28;20037;-78
2022/03/09 05:22:52;;;;;;;43.15;20.45;;;;;;;22.98;15.84;98714.91;5083883;28;20024;-78
2022/03/09 05:25:19;;;;;;;44.67;22.48;;;;;;;22.50;16.18;98714.75;5083552;28;20075;-78
2022/03/09 05:27:45;;;;;;;39.35;19.88;;;;;;;22.63;16.12;98722.34;5082709;28;20036;-78
2022/03/09 05:30:12;;;;;;;38.47;20.60;;;;;;;22.58;16.28;98714.34;5079787;28;20042;-78
2022/03/09 05:32:40;;;;;;;39.40;20.20;;;;;;;23.21;15.62;98717.91;5079527;28;20082;-78
2022/03/09 05:35:07;;;;;;;39.10;19.67;;;;;;;23.46;15.34;98712.91;5081634;28;20044;-78
2022/03/09 05:37:44;;;;;;;37.78;19.70;;;;;;;23.86;15.16;98708.50;5081203;28;21865;-78
2022/03/09 05:40:11;;;;;;;42.78;19.27;;;;;;;24.07;14.94;98715.91;5084660;28;20032;-79
2022/03/09 05:42:37;;;;;;;35.83;17.83;;;;;;;24.16;14.99;98719.00;5081241;28;20032;-77
2022/03/09 05:45:05;;;;;;;34.65;17.52;;;;;;;23.60;15.33;98721.19;5083225;28;20040;-77
2022/03/09 05:47:31;;;;;;;36.65;18.75;;;;;;;23.32;15.58;98721.41;5078219;28;20028;-77
2022/03/09 05:49:58;;;;;;;43.13;23.08;;;;;;;22.99;15.84;98731.28;5079229;28;20060;-77
2022/03/09 05:52:24;;;;;;;38.70;19.27;;;;;;;22.24;16.70;98732.88;5078697;28;20112;-77
2022/03/09 05:54:51;;;;;;;36.25;17.23;;;;;;;22.60;16.30;98741.91;5078994;28;20540;-77
2022/03/09 05:57:21;;;;;;;51.42;23.67;;;;;;;22.16;16.69;98736.91;5079137;28;20038;-77
2022/03/09 05:59:48;;;;;;;45.30;21.97;;;;;;;21.90;17.33;98740.19;5083734;28;20103;-78
2022/03/09 06:02:14;;;;;;;50.53;24.40;;;;;;;21.73;17.54;98741.00;5083799;28;20036;-78
2022/03/09 06:04:42;;;;;;;45.85;21.70;;;;;;;22.17;17.10;98734.94;5080669;28;20033;-78
2022/03/09 06:07:09;;;;;;;69.57;31.27;;;;;;;21.90;17.35;98735.41;5082062;28;20635;-78
2022/03/09 06:09:35;;;;;;;54.05;25.20;;;;;;;21.71;17.54;98737.81;5079468;28;20033;-78
2022/03/09 06:12:01;;;;;;;60.92;27.38;;;;;;;21.28;18.02;98732.25;5086478;28;20093;-78
2022/03/09 06:14:27;;;;;;;70.03;31.35;;;;;;;21.31;18.27;98739.03;5081601;28;20032;-79
2022/03/09 06:16:53;;;;;;;59.33;27.55;;;;;;;22.00;17.70;98739.38;5086726;28;20099;-79
2022/03/09 06:19:20;;;;;;;69.80;29.05;;;;;;;22.47;17.14;98741.59;5080073;28;20036;-78
2022/03/09 06:21:46;;;;;;;60.47;27.45;;;;;;;22.68;17.00;98744.28;5083600;28;20101;-78
2022/03/09 06:24:16;;;;;;;61.17;30.35;;;;;;;22.45;17.00;98743.19;5084359;28;20033;-78
2022/03/09 06:26:44;;;;;;;60.40;29.90;;;;;;;22.70;17.00;98743.88;5072160;28;20099;-77
2022/03/09 06:29:10;;;;;;;64.05;31.38;;;;;;;22.40;17.31;98738.03;5072805;28;20036;-78
2022/03/09 06:31:37;;;;;;;55.38;25.15;;;;;;;22.49;17.24;98744.78;5092518;28;20039;-78
2022/03/09 06:34:03;;;;;;;54.20;28.63;;;;;;;22.56;17.23;98749.53;5083917;28;20024;-77
2022/03/09 06:36:30;;;;;;;49.63;26.30;;;;;;;22.59;17.04;98749.50;5083884;28;20039;-78
2022/03/09 06:38:56;;;;;;;52.67;25.60;;;;;;;22.78;16.90;98753.81;5084684;28;20081;-78
2022/03/09 06:41:22;;;;;;;51.08;24.52;;;;;;;22.52;17.26;98740.38;5079952;28;20111;-78
2022/03/09 06:43:48;;;;;;;49.58;23.65;;;;;;;22.80;17.02;98750.63;5088543;28;20447;-78
2022/03/09 06:46:16;;;;;;;51.83;26.20;;;;;;;21.83;17.78;98742.97;5087630;28;20082;-78
2022/03/09 06:48:42;;;;;;;50.97;26.00;;;;;;;22.16;17.78;98756.50;5084817;28;20029;-78
2022/03/09 06:51:09;;;;;;;44.45;23.67;;;;;;;22.72;17.33;98757.47;5089936;28;20378;-78
2022/03/09 06:53:35;;;;;;;53.40;23.98;;;;;;;23.19;16.83;98754.75;5087126;28;20082;-78
2022/03/09 06:56:01;;;;;;;54.10;22.98;;;;;;;23.47;16.52;98747.34;5082482;28;20042;-78
2022/03/09 06:58:27;;;;;;;39.25;20.75;;;;;;;23.65;16.47;98745.97;5069296;28;20063;-78
2022/03/09 07:00:55;;;;;;;46.22;23.80;;;;;;;23.25;16.85;98755.91;5081280;28;20582;-78
2022/03/09 07:03:22;;;;;;;45.20;21.25;;;;;;;22.68;17.23;98755.47;5070728;28;20028;-78
2022/03/09 07:05:48;;;;;;;49.40;22.45;;;;;;;22.88;17.22;98763.38;5083289;28;20048;-78
2022/03/09 07:08:14;;;;;;;43.28;22.45;;;;;;;22.66;17.53;98755.09;5085512;28;20031;-78
2022/03/09 07:10:41;;;;;;;49.90;24.92;;;;;;;22.77;17.35;98765.44;5066729;28;20032;-78
2022/03/09 07:13:07;;;;;;;49.10;26.45;;;;;;;22.11;17.83;98756.91;5082274;28;20581;-78
2022/03/09 07:15:33;;;;;;;41.67;22.00;;;;;;;22.46;18.00;98761.56;5090379;28;20032;-78
2022/03/09 07:17:59;;;;;;;51.10;25.40;;;;;;;23.15;17.19;98759.56;5082812;28;20099;-78
2022/03/09 07:20:26;;;;;;;51.78;24.40;;;;;;;22.75;17.56;98763.06;5082222;28;20094;-78
2022/03/09 07:22:52;;;;;;;50.72;25.83;;;;;;;22.64;17.83;98765.91;5084202;28;20413;-78
2022/03/09 07:25:18;;;;;;;54.58;26.90;;;;;;;22.53;17.79;98758.75;5083767;28;20123;-78
2022/03/09 07:27:44;;;;;;;43.65;20.90;;;;;;;22.82;17.66;98763.03;5081028;28;20442;-78
2022/03/09 07:30:11;;;;;;;48.03;24.15;;;;;;;23.19;17.36;98762.38;5079211;28;20072;-78
2022/03/09 07:32:37;;;;;;;44.92;24.08;;;;;;;22.87;17.75;98756.19;5092446;28;20036;-78
2022/03/09 07:35:04;;;;;;;48.40;22.80;;;;;;;22.41;17.87;98750.78;5078364;28;20543;-78
2022/03/09 07:37:30;;;;;;;44.05;22.88;;;;;;;22.50;18.11;98753.94;5077462;28;20036;-78
2022/03/09 07:39:56;;;;;;;52.63;24.30;;;;;;;22.54;17.96;98749.91;5081724;28;20102;-78
2022/03/09 07:42:23;;;;;;;45.97;22.95;;;;;;;22.75;17.75;98751.06;5085897;28;20024;-78
2022/03/09 07:44:49;;;;;;;43.08;21.52;;;;;;;22.09;18.37;98753.72;5081043;28;20033;-78
2022/03/09 07:47:15;;;;;;;55.80;27.15;;;;;;;22.67;18.02;98751.09;5086338;28;20031;-78
2022/03/09 07:49:41;;;;;;;54.20;26.67;;;;;;;22.80;17.75;98745.81;5082916;28;20037;-78
2022/03/09 07:52:07;;;;;;;46.25;24.27;;;;;;;23.37;17.28;98743.44;5079005;28;20490;-78
2022/03/09 07:54:34;;;;;;;55.95;26.83;;;;;;;22.80;17.43;98742.25;5079399;28;20031;-78
2022/03/09 07:57:01;;;;;;;52.20;26.10;;;;;;;23.32;17.49;98739.03;5086254;28;20079;-78
2022/03/09 07:59:28;;;;;;;47.40;23.60;;;;;;;23.42;17.35;98743.00;5077641;28;20037;-78
2022/03/09 08:01:55;;;;;;;46.17;24.77;;;;;;;22.66;17.98;98734.72;5081640;28;20028;-78
2022/03/09 08:04:22;;;;;;;50.63;26.70;;;;;;;21.62;19.03;98731.84;5084307;28;20035;-78
2022/03/09 08:06:50;;;;;;;57.45;28.02;;;;;;;21.55;19.29;98723.47;5079580;28;20028;-78
2022/03/09 08:09:16;;;;;;;52.40;27.17;;;;;;;21.14;19.59;98725.91;5085224;28;20051;-78
2022/03/09 08:11:43;;;;;;;50.83;25.23;;;;;;;21.00;19.67;98726.66;5066276;28;20056;-78
2022/03/09 08:14:10;;;;;;;53.17;25.15;;;;;;;21.57;19.38;98730.25;5067545;28;20051;-78
2022/03/09 08:16:36;;;;;;;44.47;24.52;;;;;;;22.69;18.22;98731.09;5081148;28;20032;-78
2022/03/09 08:19:03;;;;;;;43.67;23.73;;;;;;;23.36;17.47;98731.41;5077435;28;20118;-78
2022/03/09 08:21:30;;;;;;;46.20;23.42;;;;;;;23.42;17.53;98730.97;5078750;28;20059;-78
2022/03/09 08:23:56;;;;;;;49.85;25.23;;;;;;;23.32;17.52;98721.41;5081249;28;20028;-78
2022/03/09 08:26:22;;;;;;;44.90;22.92;;;;;;;24.05;16.95;98728.31;5077805;28;20051;-78
2022/03/09 08:28:48;;;;;;;37.05;21.00;;;;;;;24.66;16.68;98731.19;5088417;28;20392;-78
2022/03/09 08:31:14;;;;;;;48.50;24.20;;;;;;;24.26;16.67;98723.69;5088226;28;20504;-78
2022/03/09 08:33:42;;;;;;;44.97;22.38;;;;;;;24.78;16.54;98729.84;5082409;28;20385;-78
2022/03/09 08:36:10;;;;;;;41.33;22.15;;;;;;;25.22;16.02;98730.38;5079482;28;20036;-78
2022/03/09 08:38:37;;;;;;;38.75;21.63;;;;;;;24.98;16.02;98731.53;5086070;28;20488;-78
2022/03/09 08:41:03;;;;;;;46.65;23.35;;;;;;;24.53;16.64;98733.75;5083689;28;20111;-78
2022/03/09 08:43:29;;;;;;;47.88;24.83;;;;;;;24.32;17.02;98722.81;5086911;28;20032;-78
2022/03/09 08:45:55;;;;;;;52.63;28.10;;;;;;;23.44;17.57;98706.94;5080157;28;20028;-78
2022/03/09 08:48:21;;;;;;;44.10;23.52;;;;;;;22.29;18.67;98712.06;5083649;28;20028;-78
2022/03/09 08:50:48;;;;;;;46.60;24.75;;;;;;;21.58;19.24;98715.09;5079515;28;20047;-78
2022/03/09 08:53:15;;;;;;;58.92;31.02;;;;;;;21.32;19.84;98709.94;5085748;28;20032;-79
2022/03/09 08:55:42;;;;;;;54.60;30.05;;;;;;;21.16;19.80;98712.34;5064251;28;20060;-78
2022/03/09 08:58:08;;;;;;;46.72;26.90;;;;;;;21.08;20.26;98705.94;5083469;28;20032;-78
2022/03/09 09:00:34;;;;;;;55.35;29.48;;;;;;;20.81;20.62;98699.13;5078793;28;20536;-78
2022/03/09 09:03:00;;;;;;;62.60;32.22;;;;;;;20.97;20.21;98698.72;5079482;28;20028;-78
2022/03/09 09:05:27;;;;;;;52.78;28.10;;;;;;;20.31;21.08;98701.00;5079649;28;20054;-78
2022/03/09 09:07:53;;;;;;;51.88;29.17;;;;;;;20.17;21.30;98706.50;5065874;28;20048;-78
2022/03/09 09:10:19;;;;;;;46.75;24.42;;;;;;;21.59;20.00;98704.69;5077198;28;20124;-78
2022/03/09 09:12:50;;;;;;;56.78;28.45;;;;;;;20.96;20.28;98697.13;5065298;28;20035;-78
2022/03/09 09:15:16;;;;;;;56.35;26.98;;;;;;;21.32;19.79;98699.56;5087283;28;20032;-78
2022/03/09 09:17:43;;;;;;;50.28;26.38;;;;;;;21.92;18.96;98682.69;5077673;28;20043;-78
2022/03/09 09:20:09;;;;;;;51.90;28.92;;;;;;;20.80;19.99;98703.09;5085149;28;20033;-78
2022/03/09 09:22:36;;;;;;;48.72;25.67;;;;;;;21.21;19.98;98697.97;5082590;28;20474;-78
2022/03/09 09:25:02;;;;;;;51.03;27.15;;;;;;;20.71;20.02;98699.91;5085235;28;20036;-78
2022/03/09 09:27:28;;;;;;;44.63;24.23;;;;;;;21.54;19.53;98696.75;5081663;28;20119;-78
2022/03/09 09:29:55;;;;;;;47.58;23.30;;;;;;;22.67;18.68;98697.13;5079816;28;20024;-78
2022/03/09 09:32:21;;;;;;;44.58;23.30;;;;;;;23.64;17.63;98691.09;5065142;28;20040;-78
2022/03/09 09:34:47;;;;;;;41.90;22.95;;;;;;;23.69;17.17;98685.06;5081760;28;20036;-79
2022/03/09 09:37:13;;;;;;;44.92;23.35;;;;;;;23.04;18.39;98679.63;5081273;28;20024;-78
2022/03/09 09:39:39;;;;;;;50.80;27.48;;;;;;;22.02;19.03;98675.44;5081933;28;20044;-79
2022/03/09 09:42:07;;;;;;;46.42;23.35;;;;;;;22.19;19.06;98673.78;5080448;28;20081;-78
2022/03/09 09:44:36;;;;;;;45.50;27.02;;;;;;;22.52;18.66;98682.38;5084737;28;20056;-79
2022/03/09 09:47:06;;;;;;;44.83;22.52;;;;;;;23.05;18.12;98668.03;5082160;28;20024;-79
2022/03/09 09:49:37;;;;;;;42.97;24.52;;;;;;;23.12;18.44;98678.38;5083414;28;20032;-79
2022/03/09 09:52:04;;;;;;;38.92;20.95;;;;;;;23.84;17.77;98686.50;5083014;28;20043;-79
2022/03/09 09:54:30;;;;;;;37.78;20.38;;;;;;;23.84;17.25;98675.28;5076193;28;20043;-79
2022/03/09 09:56:57;;;;;;;43.33;24.08;;;;;;;22.48;18.38;98669.59;5065052;28;20035;-79
2022/03/09 09:59:23;;;;;;;39.75;22.00;;;;;;;21.91;20.07;98671.91;5085040;28;20044;-79
2022/03/09 10:01:49;;;;;;;34.90;19.67;;;;;;;23.26;18.84;98678.25;5084828;28;20035;-79
2022/03/09 10:04:15;;;;;;;41.97;21.52;;;;;;;24.35;17.81;98684.69;5072844;28;20040;-79
2022/03/09 10:06:42;;;;;;;41.33;21.92;;;;;;;23.41;18.27;98671.31;5084607;28;20525;-79
2022/03/09 10:09:11;;;;;;;41.63;20.48;;;;;;;24.12;17.60;98668.56;5083035;28;20040;-79
2022/03/09 10:11:51;;;;;;;43.95;23.02;;;;;;;22.81;18.64;98671.81;5074920;28;20109;-79
2022/03/09 10:14:41;;;;;;;39.80;19.48;;;;;;;23.68;18.39;98668.66;5087402;28;20036;-79
2022/03/09 10:17:13;;;;;;;42.15;22.45;;;;;;;23.94;17.77;98676.38;5083004;28;20037;-79
2022/03/09 10:19:45;;;;;;;41.45;22.25;;;;;;;22.57;18.32;98673.56;5075175;28;20074;-78
2022/03/09 10:22:26;;;;;;;38.55;20.70;;;;;;;22.21;18.65;98671.38;5090774;28;20059;-79
2022/03/09 10:24:53;;;;;;;;;;;;;;;22.76;18.57;98669.44;5083636;28;20040;-79
2022/03/09 10:27:39;;;;;;;39.35;20.95;;;;;;;23.23;18.36;98681.88;5079453;28;19923;-79
2022/03/09 10:30:33;;;;;;;43.80;23.50;;;;;;;21.97;19.39;98678.66;5084636;28;20111;-79
2022/03/09 10:33:21;;;;;;;52.25;26.58;;;;;;;22.39;19.27;98672.06;5072058;28;20408;-79
2022/03/09 10:35:49;;;;;;;58.55;28.30;;;;;;;22.12;19.12;98677.41;5083419;28;20055;-79
2022/03/09 10:38:15;;;;;;;48.42;25.30;;;;;;;22.88;18.03;98676.56;5081033;28;20031;-79
2022/03/09 10:40:47;;;;;;;48.75;23.90;;;;;;;23.52;18.00;98663.63;5084244;28;20032;-78
2022/03/09 10:43:21;;;;;;;48.38;26.55;;;;;;;23.63;17.78;98675.50;5084502;28;20110;-79
2022/03/09 10:46:03;;;;;;;50.30;26.67;;;;;;;23.17;17.66;98666.75;5083693;28;20387;-79
2022/03/09 10:49:00;;;;;;;45.97;23.52;;;;;;;21.08;20.39;98669.66;5086215;28;20076;-79
2022/03/09 10:51:44;;;;;;;49.10;24.77;;;;;;;20.29;21.31;98683.88;5083150;28;20121;-79
2022/03/09 10:54:16;;;;;;;57.83;30.00;;;;;;;21.89;19.06;98672.28;5072858;28;20032;-79
2022/03/09 10:56:44;;;;;;;44.78;24.10;;;;;;;22.97;18.08;98669.28;5086184;28;20052;-79
2022/03/09 10:59:15;;;;;;;51.50;26.88;;;;;;;23.51;18.24;98673.22;5086005;28;20048;-79
2022/03/09 11:02:00;;;;;;;52.35;25.90;;;;;;;22.58;18.70;98685.56;5080029;28;20031;-79
2022/03/09 11:04:27;;;;;;;46.90;24.70;;;;;;;22.06;19.07;98676.22;5084620;28;20043;-79
2022/03/09 11:06:56;;;;;;;48.88;25.13;;;;;;;21.87;19.32;98671.09;5083962;28;20032;-79
2022/03/09 11:09:22;;;;;;;46.42;25.98;;;;;;;23.47;18.10;98666.06;5084643;28;20036;-79
2022/03/09 11:11:49;;;;;;;50.60;25.90;;;;;;;23.49;17.95;98658.03;5078864;28;20029;-79
2022/03/09 11:14:17;;;;;;;44.35;24.55;;;;;;;23.16;18.75;98667.94;5086156;28;20120;-79
2022/03/09 11:16:45;;;;;;;57.00;29.67;;;;;;;22.73;18.93;98667.50;5089863;28;20060;-79
2022/03/09 11:19:13;;;;;;;55.17;29.15;;;;;;;22.02;19.19;98659.47;5082683;28;20040;-79
2022/03/09 11:21:39;;;;;;;53.47;28.95;;;;;;;21.86;19.21;98667.53;5085040;28;20582;-79